AirNav   ATP
 
 695 users online  

KGKY Arlington Municipal Airport
Arlington, Texas, USA

GOING TO ARLINGTON?


FAA INFORMATION EFFECTIVE 07 DECEMBER 2017

Location

FAA Identifier: GKY
Lat/Long: 32-39-49.9000N / 097-05-39.4000W
32-39.831667N / 097-05.656667W
32.6638611 / -97.0942778
(estimated)
Elevation: 628.2 ft. / 191.5 m (surveyed)
Variation: 06E (2000)
From city: 4 miles S of ARLINGTON, TX
Time zone: UTC -6 (UTC -5 during Daylight Saving Time)
Zip code: 76018

Airport Operations

Airport use: Open to the public
Activation date: 05/1971
Control tower: yes
ARTCC: FORT WORTH CENTER
FSS: FORT WORTH FLIGHT SERVICE STATION
NOTAMs facility: GKY (NOTAM-D service available)
Attendance: CONTINUOUS
Pattern altitude: 1628.2 ft. MSL
Wind indicator: lighted
Segmented circle: yes
Lights: MIRL RY 16/34 PRESET MED INTST; HIGHER INTST BY ATCT REQ. WHEN ATCT CLSD ACTVT MALSR RY 34 - CTAF. PAPI RYS 16 & 34 OPER CONTINUOUSLY.
Beacon: white-green (lighted land airport)
Operates sunset to sunrise.

Airport Communications

CTAF: 128.625
WX ASOS: 127.375 (817-557-0251)
ARLINGTON GROUND: 121.875 [0700-2100]
ARLINGTON TOWER: 128.625 [0700-2100]
REGIONAL APPROACH: 135.975
REGIONAL DEPARTURE: 135.975
CLEARANCE DELIVERY: 121.875 118.85 WHEN GKY ATCT CLSD
DODJE STAR: 125.2 125.9
KNEAD STAR: 135.975
LIKES STAR: 125.8(SOUTH) 135.975(NORTH)
MOTZA STAR: 118.1(SOUTH) 125.8(NORTH)
REEKO STAR: 125.2
SANGR STAR: 124.3
SASIE STAR: 124.3
SLUGG STAR: 125.8(SOUTH) 135.975(NORTH)
SWVAY STAR: 135.975
WESAT STAR: 118.1(SOUTH) 125.8(NORTH)
WX AWOS-3P at GPM (3 nm NE): 118.475 (972-606-1433)
WX ASOS at RBD (11 nm E): PHONE 214-330-5317
WX AWOS-3 at FWS (12 nm SW): 120.025 (817-426-4172)
WX ASOS at DFW (14 nm N): PHONE 972-615-2608
WX AWOS-3 at JWY (15 nm SE): 119.575 (972-937-4747)
WX AWOS-3 at 49T (16 nm NE): 135.425 (214-670-1243)
WX ASOS at DAL (16 nm NE): PHONE 214-353-1551
WX ASOS at FTW (16 nm NW): PHONE 817-740-3346
WX AWOS-3 at LNC (20 nm E): 118.975 (972-227-0471)

Nearby radio navigation aids

VOR radial/distance  VOR name  Freq  Var
TTTr186/12.6MAVERICK VOR/DME113.1006E
FUZr156/14.2RANGER VORTAC115.7006E
CVEr209/16.6COWBOY VOR/DME116.2006E

 
NDB name  Hdg/Dist  Freq  Var  ID
MESQUITE250/29.824803EPQF .--. --.- ..-.

Airport Services

Fuel available: 100LL JET-A
SELF SERVE FUEL WITH MAJOR CREDIT CARD.
Parking: hangars and tiedowns
Airframe service: MAJOR
Powerplant service: MAJOR
Bottled oxygen: LOW
Bulk oxygen: NONE

Runway Information

Runway 16/34

Dimensions: 6080 x 100 ft. / 1853 x 30 m
Surface: concrete, in good condition
Weight bearing capacity: 
Single wheel: 60.0
Runway edge lights: medium intensity
RUNWAY 16  RUNWAY 34
Latitude: 32-40.322683N32-39.341885N
Longitude: 097-05.779817W097-05.533875W
Elevation: 628.2 ft.596.9 ft.
Gradient: 0.7%0.5% UP
Traffic pattern: leftleft
Runway heading: 162 magnetic, 168 true342 magnetic, 348 true
Markings: nonprecision, in good conditionprecision, in good condition
Visual slope indicator: 4-light PAPI on left (3.00 degrees glide path)4-light PAPI on left (3.00 degrees glide path)
PAPI UNUSABLE BYD 8 DEGS RIGHT OF RY CNTRLN.
Approach lights: MALSR: 1,400 foot medium intensity approach lighting system with runway alignment indicator lights
Runway end identifier lights: yesno
Touchdown point: yes, no lightsyes, no lights
Instrument approach: ILS/DME

Airport Ownership and Management from official FAA records

Ownership: Publicly-owned
Owner: CITY OF ARLINGTON
PO BOX 90231
ARLINGTON, TX 76004-3231
Phone 817-459-6100
Manager: KAREN VAN WINKLE
5000 S. COLLINS
ARLINGTON, TX 76004-3231
Phone 817-459-5570
SUITE 100

Airport Operational Statistics

Aircraft based on the field: 236
Single engine airplanes: 196
Multi engine airplanes: 22
Jet airplanes: 8
Helicopters: 10
    
Aircraft operations: avg 242/day *
54% transient general aviation
44% local general aviation
1% air taxi
<1% military
<1% commercial
* for 12-month period ending 31 December 2015

Additional Remarks

EXTENSIVE HELICOPTER TFC WEST OF RWY.
HEL TEST FAC AT ARPT, 1975 OPNS 15200, MOSTLY FM PVT HELIPAD ADJOINING LNDG AREA.

Instrument Procedures

NOTE: All procedures below are presented as PDF files. If you need a reader for these files, you should download the free Adobe Reader.

NOT FOR NAVIGATION. Please procure official charts for flight.
FAA instrument procedures published for use between 7 December 2017 at 0901Z and 4 January 2018 at 0900Z.

 
STARs - Standard Terminal Arrivals
DODJE FIVE   2 pages: [1] [2] (750KB)
KNEAD SEVEN **CHANGED**   2 pages: [1] [2] (446KB)
MOTZA EIGHT   2 pages: [1] [2] (500KB)
REEKO THREE (RNAV)   download (198KB)
SASIE FIVE   2 pages: [1] [2] (487KB)
SWVAY FOUR (RNAV)   download (225KB)
TRUUK TWO (RNAV)   download (196KB)
WESAT TWO (RNAV)   download (192KB)
 
IAPs - Instrument Approach Procedures
ILS OR LOC/DME RWY 34   download (261KB)
RNAV (GPS) RWY 34   download (214KB)
VOR/DME RWY 34   download (200KB)
NOTE: Special Alternate Minimums apply   download (16KB)
 
Departure Procedures
DALLAS FOUR   2 pages: [1] [2] (587KB)
GARLAND SIX   2 pages: [1] [2] (426KB)
HUBBARD NINE   2 pages: [1] [2] (418KB)
JOE POOL NINE   2 pages: [1] [2] (589KB)
KINGDOM FOUR   2 pages: [1] [2] (446KB)
KUSSO FOUR (RNAV)   2 pages: [1] [2] (368KB)
SWABR FIVE (RNAV)   2 pages: [1] [2] (366KB)
TEXOMA FIVE   2 pages: [1] [2] (546KB)
WORTH ONE   2 pages: [1] [2] (580KB)
NOTE: Special Take-Off Minimums/Departure Procedures apply   download

Other nearby airports with instrument procedures:

KGPM - Grand Prairie Municipal Airport (3 nm NE)
KRBD - Dallas Executive Airport (11 nm E)
KFWS - Fort Worth Spinks Airport (12 nm SW)
KDFW - Dallas-Fort Worth International Airport (14 nm N)
KJWY - Mid-Way Regional Airport (15 nm SE)
KDAL - Dallas Love Field Airport (16 nm NE)
KFTW - Fort Worth Meacham International Airport (16 nm NW)
KNFW - Fort Worth Naval Air Station JRB (Carswell Field) Airport (19 nm W)
KLNC - Lancaster Regional Airport (20 nm E)
 
Loc | Ops | Rwys | IFR | FBO | Links
Com | Nav | Svcs | Stats | Notes


 
Area around KGKY (Arlington Municipal Airport)
 
Road maps at: MapQuest Bing Google
 
Aerial photo
WARNING: Photo may not be current or correct
Aerial photo of KGKY (Arlington Municipal Airport)
Photo by Jeff Law
Photo taken 19-Feb-2013
looking northwest.

Do you have a better or more recent aerial photo of Arlington Municipal Airport that you would like to share? If so, please send us your photo.

 
Sectional chart

 
Airport diagram
CAUTION: Diagram may not be current
Diagram of KGKY (Arlington Municipal Airport)
 
Airport distance calculator
Flying to Arlington Municipal Airport? Find the distance to fly.

From to KGKY

Sunrise and sunset
Times for 18-Dec-2017
 Local
(UTC-6)
 Zulu
(UTC)
Morning civil twilight06:5912:59
Sunrise07:2613:26
Sunset17:2423:24
Evening civil twilight17:5123:51

Current date and time
Zulu (UTC)  18-Dec-2017 12:11:24
Local (UTC-6)  18-Dec-2017 06:11:24
 
METAR
KGKY 181153Z AUTO 06004KT 2SM BR OVC002 08/08 A3017 RMK AO2 SLP216 T00780078 10083 20067 53012 $
KGPM 
3nm NE 
181155Z AUTO 07003KT 1 3/4SM OVC002 08/08 A3018 RMK AO2 T00830083 10090 20083
KRBD 
12nm E 
181153Z AUTO 00000KT 1SM BR VV002 08/08 A3016 RMK AO2 SLP213 T00780078 10083 20078 53009 $
KFWS 
12nm SW 
181155Z AUTO 00000KT 1 1/4SM BR OVC001 08/07 A3018 RMK AO2 T00770072 10082 20062
KDFW 
15nm N 
181153Z 00000KT 1/4SM R17C/P6000FT BR OVC002 09/09 A3015 RMK AO2 SFC VIS 1 1/2 SLP209 60000 T00940089 10100 20094 53006 $
KJWY 
15nm SE 
181155Z AUTO 00000KT 1/2SM FG OVC002 08/08 A3018 RMK AO2 T00760076 10085 20075
KDAL 
17nm NE 
181153Z 00000KT 3SM BR OVC003 09/08 A3017 RMK AO2 SLP214 T00890083 10100 20089 53007
KFTW 
17nm NW 
181153Z 12006KT 3/4SM R16/2800V4500FT BR VV001 09/09 A3016 RMK AO2 SLP212 T00890089 10094 20089 53006 $
KNFW 
19nm W 
181152Z 10006KT 1SM BR OVC002 09/08 A3017 RMK AO2 SLP198 T00890078 10094 20089 53005 $
KLNC 
20nm E 
181155Z AUTO 00000KT 1 1/2SM BR OVC001 08/08 A3019 RMK AO2 T00800077 10090 20080
TAF
KGKY 181128Z 1812/1912 13004KT 3SM -DZ BR OVC004 TEMPO 1812/1815 1SM BR OVC002 FM181500 13004KT 5SM BR OVC008 FM182000 14005KT P6SM OVC011 FM190300 15006KT 5SM BR OVC008 FM190600 16007KT 2SM -DZ BR OVC004
KDFW 
15nm N 
181144Z 1812/1918 13003KT 2SM -DZ BR OVC003 TEMPO 1812/1815 1SM -DZ BR OVC002 FM181500 13004KT 5SM BR OVC006 FM182000 14005KT P6SM OVC011 FM190300 15006KT 5SM BR OVC008 FM190600 16007KT 2SM -DZ BR OVC004 FM191300 18007KT 3SM -RA BR OVC005
KDAL 
17nm NE 
181128Z 1812/1912 13004KT 3SM -DZ BR OVC004 TEMPO 1812/1815 1SM -DZ BR OVC002 FM181500 13004KT 5SM BR OVC008 FM182000 14005KT P6SM OVC011 FM190300 15006KT 5SM BR OVC008 FM190600 16007KT 2SM -DZ BR OVC004
KFTW 
17nm NW 
181128Z 1812/1912 13004KT 2SM -DZ BR OVC003 TEMPO 1812/1815 1SM -DZ BR OVC001 FM181500 13004KT 5SM BR OVC008 FM182000 14005KT P6SM OVC011 FM190300 15006KT 5SM BR OVC008 FM190600 16007KT 2SM -DZ BR OVC004
KNFW 
19nm W 
1812/1907 VRB05KT 1600 BR BKN005 OVC010 QNH3008INS TEMPO 1807/1812 0800 FG BKN002 BECMG 1820/1822 15010KT 9999 NSW SCT025 BKN080 BKN250 QNH2999INS TEMPO 1903/1907 16013G18KT BKN010 BKN025 OVC250 T09/1812Z T18/1821Z AMD 1239 FN20046
NOTAMs
Click for the latest NOTAMs
NOTAMs are issued by the DoD/FAA and will open in a separate window not controlled by AirNav.

 

 
 

FBO, Fuel Providers, and Aircraft Ground Support

  
 Business Name 
 
 Contact 
 
 Services / Description 
 
Fuel Prices
 
Comments
  
Harrison Aviation ASRI 131.325
817-557-0350
toll-free 1-888-383-5354
[web site]
[email]
Arlington is home to the new Dallas Cowboy Stadium and Arlington Municipal Airport is located in the heart of the DFW metroplex with quick access to I-20 and Hwy 360. Dallas, Fort Worth, and Arlington are just minutes away.

Come for your business meeting and then stay for the entertainment (Dallas Cowboys, Texas Rangers, Lone Star Park, Nokia Theater)
More info and photos of Harrison Aviation
 
NATA Safety 1st   U.S. Government Contract Fuel   Crew cars   National Business Aviation Association  
 
Shell
100LL Jet A
FS $4.59 $4.45 
SS $3.99 --- 
 Updated 12-Dec-2017
 
   8 read write
Alternatives at nearby airports
IMPORTANT: Note that the FBOs below are NOT at KGKY but at other nearby airports. Do not expect services from these FBOs to be available at KGKY.
Located at KRBD
Ambassador Jet Center
ASRI 131.90
214-623-8800
214-251-6512
[web site]
[email]
At KRBD (Dallas Executive Airport), 11 miles E

Premier FBO situated minutes south of downtown Dallas - convenient to Dallas Market Center, Dallas Convention Center, American Airline Arena, premier hotels and cultural district as well as Cowboys Stadium, Rangers Ballpark in Arlington, Six Flags, and Lone Star Park. Unmatched personal service provided by our dedicated customer service team.
More info and photos of Ambassador Jet Center (KRBD)
Located at KRBD
EPIC
100LL Jet A
FS $4.75 $4.05 
GUARANTEED
AirBossMEMBER
PRICING
FS $4.65 $3.90 
 
   31 read write
Located at KFTW
Texas Jet
ASRI 129.85
817-624-8438
toll-free 1-800-776-4547
[web site]
[email]

Like us on facebook
At KFTW (Fort Worth Meacham International Airport), 16 miles NW

WHY CHOOSE TEXAS JET AT FTW TO BE YOUR FBO?

2017 RANKINGS (as rated by pilots)

#1 BEST U.S. FBO - Pro Pilot Magazine's PRASE SURVEY

#1 INDEPENDENT FBO - Pro Pilot Magazine's PRASE SURVEY

#4 BEST U.S. FBO - Pilots' Choice Awards 2016 - fltplan.com

2007 through 2016 - Pilots voted Texas Jet's Customer Service Manager, Holly, one of the TOP SIX CSRs in the U.S.


TEXAS JET . EXCEPTIONAL SERVICE . PEOPLE YOU TRUST
More info and photos of Texas Jet (KFTW)
Located at KFTW
Phillips 66
100LL Jet A
FS $6.24 $5.39 
GUARANTEED
AirBossMEMBER
PRICING
FS $5.99 $5.14 
 
   28 read write
FS=Full service
SS=Self service
Update Fuel Prices
 

Aviation Businesses, Services, and Facilities

  
 Business Name 
 
 Contact 
 
 Services / Description 
 
Distance
 
Comments
  
Airline Transport Professionals - ATP Flight School toll-free 1-800-255-2877
[web site]
[email]
ATP provides professional, accelerated, airline-oriented flight training at 42 flight schools nationwide. ATP's Airline Career Pilot Program prepares pilots for airline careers from zero time to 1,500 hours, with CFI jobs and airline employment. Fly with the nation's largest flight school and gain access to more aircraft, locations, and job placements than any flight school, academy, or aviation university can offer.
More info and photos of Airline Transport Professionals - ATP Flight School
on airport  
   1 read write
Van Bortel Aircraft 817-468-7788
toll-free 1-800-759-4295
[web site]
[email]
Aircraft maintenance, Avionics sales and service, Aircraft modifications, Aircraft parts, Aviation accessories, Aircraft sales / leasing / brokerage
 
Cessna Service Center   Garmin  
 
More info about Van Bortel Aircraft
on airport  
   write
 

Would you like to see your business listed on this page?

 If your business provides an interesting product or service to pilots, flight crews, aircraft, or users of the Arlington Municipal Airport, you should consider listing it here.  To start the listing process, click on the button below
 
Add a business
 

Other Pages about Arlington Municipal Airport

www.arlingtontx.gov/aviation
 
Update a link
 
Copyright © AirNav, LLC. All rights reserved. Privacy Policy  Contact